Weather observations for the past three days for
Hyannis, Barnstable Municipal-Boardman Airport
Metric (Imperial)
Date Time (edt) Wind (kph) Vis. (km) Weather Sky Cond. Temperature (ºC) Relative Humidity Wind Chill (°C) Heat Index (°C) Pressure Precipitation (cm)
Air Dwpt 6 hour altimeter (cm) sea level (mb) 1 hr 3 hr 6 hr
Max. Min.
07 13:56 SW 13 16.09 Fair CLR 13.3 8.3 14.4 8.3 72% 75.49 1006.3
07 12:56 N 6 16.09 Fair CLR 13.9 5.6 58% 75.51 1007.0
07 11:56 N 17 G 26 16.09 Fair CLR 12.8 6.7 67% 75.57 1007.3
07 10:56 NW 17 16.09 Overcast OVC095 11.1 7.2 77% 75.57 1007.4 0.05
07 09:56 N 7 16.09 Light Rain BKN080 OVC090 10 7.2 83% 9 75.57 1007.4
07 08:56 NW 9 11.27 Light Rain BKN065 OVC080 8.9 7.8 93% 8 75.59 1007.7 0.05
07 07:56 N 19 G 28 6.44 Light Rain Fog/Mist SCT006 OVC012 9.4 8.9 12.8 9.4 97% 7 75.54 1007.2 0.08 0.64
07 06:56 N 17 9.66 Light Rain Fog/Mist OVC014 9.4 8.9 97% 7 75.51 1006.9 0.05
07 05:56 N 19 G 39 8.05 Rain Fog/Mist FEW006 SCT035 OVC070 9.4 8.9 97% 7 75.44 1005.6 0.38
07 04:56 W 7 3.22 Thunderstorm in Vicinity Heavy Rain Fog/Mist OVC002 11.7 11.7 100% 75.46 1006.1 0.13 0.13
07 03:56 S 7 4.83 Fog/Mist OVC003 11.7 11.7 100% 75.41 1005.4
07 02:56 SW 7 9.66 Fog/Mist OVC003 12.8 12.2 96% 75.46 1006.2
07 01:56 SW 17 6.44 Fog/Mist OVC002 12.2 12.2 13.9 12.2 100% 75.46 1006.1 0.28
07 00:56 SW 24 G 39 6.44 Fog/Mist OVC003 12.8 12.2 96% 75.51 1006.7
06 23:56 SW 22 8.05 Fog/Mist OVC004 13.3 12.8 97% 75.54 1007.2
06 22:56 SW 22 G 41 9.66 Fog/Mist OVC005 13.9 12.8 93% 75.54 1007.1 0.28
06 21:56 SW 26 G 43 11.27 Overcast OVC006 13.9 12.8 93% 75.62 1008.1
06 20:56 SW 28 G 44 6.44 Light Rain Fog/Mist OVC004 13.3 13.3 100% 75.62 1008.2 0.28
06 19:56 S 24 G 44 4.02 Light Rain Fog/Mist OVC004 12.8 12.8 16.1 12.8 100% 75.62 1008.1 0.2 0.3
06 18:56 S 26 G 46 4.83 Rain Fog/Mist BKN015 BKN025 OVC033 13.3 12.2 93% 75.67 1008.7 0.1
06 17:56 S 28 G 46 14.48 Overcast BKN033 OVC100 14.4 11.7 84% 75.69 1009.0
06 16:56 S 26 G 50 14.48 Mostly Cloudy BKN035 BKN110 14.4 11.7 84% 75.69 1009.3
06 15:56 S 26 G 52 14.48 Partly Cloudy SCT034 14.4 11.7 84% 75.77 1010.0
06 14:56 S 26 G 48 14.48 Overcast OVC033 14.4 11.7 84% 75.79 1010.6
06 13:56 S 33 G 56 16.09 Fair and Breezy CLR 16.1 11.7 16.7 13.9 75% 75.87 1011.5
06 12:56 S 31 G 54 16.09 Fair CLR 15.6 11.7 78% 75.9 1012.0
06 11:56 S 26 G 54 12.87 Fair CLR 16.1 12.2 78% 75.97 1013.0
06 10:56 S 33 G 50 11.27 Fair and Breezy CLR 15.6 11.7 78% 76 1013.1
06 09:56 SW 31 G 50 16.09 A Few Clouds FEW018 15.6 11.7 78% 76 1013.4
06 08:56 SW 31 G 54 14.48 A Few Clouds FEW017 15 11.7 81% 76 1013.4
06 07:56 S 19 G 39 12.87 Fair CLR 13.9 11.7 14.4 13.3 87% 76.05 1013.8
06 06:56 S 20 G 35 12.87 A Few Clouds FEW016 13.9 11.7 87% 76.02 1013.7
06 05:56 S 24 G 37 12.87 Fair CLR 13.3 11.7 90% 76.02 1013.5
06 04:56 SW 20 G 37 14.48 Overcast OVC015 13.3 11.7 90% 76.05 1013.7
06 03:56 SW 28 G 43 14.48 Fair CLR 13.9 12.2 90% 76.02 1013.5
06 02:56 SW 22 G 41 14.48 Overcast FEW010 OVC022 13.3 12.2 93% 76.02 1013.5
06 01:56 SW 28 G 46 14.48 Mostly Cloudy BKN023 13.3 12.2 14.4 13.3 93% 76.02 0.0
06 00:56 S 24 G 43 14.48 A Few Clouds FEW023 13.3 11.7 90% 76.05 1013.8
05 23:56 SW 30 G 50 16.09 Fair CLR 13.9 11.7 87% 76.02 1013.7
05 22:56 SW 33 G 52 16.09 Fair and Breezy CLR 13.9 11.1 83% 76 1013.3
05 21:56 SW 37 G 56 16.09 Fair and Breezy CLR 14.4 10.6 78% 76 1013.3
05 20:56 SW 31 G 57 16.09 Fair CLR 13.9 10 78% 75.95 1012.6
05 19:56 SW 30 G 50 16.09 Fair CLR 14.4 8.3 16.1 14.4 67% 75.9 1011.9
05 18:56 SW 30 G 48 16.09 Fair CLR 14.4 9.4 72% 75.87 1011.5
05 17:56 SW 31 G 56 16.09 Fair CLR 15 10.6 75% 75.84 1011.2
05 16:56 SW 35 G 56 16.09 Fair and Breezy CLR 15.6 10.6 72% 75.82 1011.0
05 15:56 SW 30 G 50 16.09 Fair CLR 15.6 10.6 72% 75.84 1011.2
05 14:56 SW 37 G 56 16.09 Fair and Breezy CLR 15.6 10.6 72% 75.84 1011.3
05 13:56 SW 31 G 46 16.09 Fair CLR 16 11 72% 75.9 0.0
05 12:56 SW 37 G 56 16.09 Fair and Breezy CLR 16 11 72% 75.9 0.0
05 11:56 S 28 G 50 16.09 Fair CLR 15.6 10.6 72% 75.92 1012.3
05 10:56 SW 28 G 48 16.09 Fair CLR 15 10.6 75% 75.92 1012.2
05 09:56 SW 31 16.09 Fair CLR 15 10.6 75% 75.92 1012.3
05 08:56 S 22 G 43 16.09 Fair CLR 13.9 10 78% 75.92 1012.2
05 07:56 SW 22 G 39 16.09 Fair CLR 13.3 10 13.3 10.6 81% 75.95 1012.4
05 06:56 S 17 G 33 16.09 Fair CLR 12.2 9.4 83% 75.92 1012.3
05 05:56 S 17 16.09 Fair CLR 11.1 8.9 86% 75.92 1012.1
05 04:56 SW 15 16.09 Fair CLR 11.1 8.9 86% 75.9 1011.9
05 03:56 SW 15 16.09 Fair CLR 10.6 8.9 89% 75.92 1012.3
05 02:56 SW 31 16.09 Fair CLR 11.7 8.9 83% 75.92 1012.1
05 01:56 SW 19 16.09 Fair CLR 11.1 9.4 12.2 11.1 89% 75.92 0.0
05 00:56 SW 20 16.09 Fair CLR 11.1 8.9 86% 75.92 1012.2
04 23:56 SW 17 16.09 Fair CLR 11.1 8.3 83% 75.95 1012.6
04 22:56 SW 26 G 43 16.09 Fair CLR 11.7 7.8 77% 75.95 1012.7
04 21:56 SW 28 G 43 16.09 Fair CLR 12.2 7.8 75% 75.95 1012.5
04 20:56 SW 33 G 46 16.09 Fair and Breezy CLR 12.2 6.7 69% 75.9 1011.9
04 19:56 SW 31 G 50 16.09 Fair CLR 12.2 5.6 17.2 12.2 64% 75.82 1011.0
04 18:56 SW 35 G 56 16.09 Fair and Breezy CLR 13.3 5.6 60% 75.77 1010.3
04 17:56 SW 35 G 54 16.09 Fair and Breezy CLR 13.9 5.6 58% 75.77 1010.3
04 16:56 SW 35 G 52 16.09 Fair and Breezy CLR 15 5.6 54% 75.74 1009.8
04 15:56 SW 46 G 76 16.09 Fair and Windy CLR 16.7 2.2 38% 75.74 1009.9
Date Time (edt) Wind (kph) Vis. (km) Weather Sky Cond. Air Dwpt Max. Min. Relative Humidity Wind Chill (°C) Heat Index (°C) altimeter (cm) sea level (mb) 1 hr 3 hr 6 hr
6 hour
Temperature (ºC) Pressure Precipitation (cm)